Advent, West Virginia
Current Conditions -  °F | °C
As of 9:31 AM on Monday 26 Jan 2015 (Local Time) from KCRW Reporting Station
Light Rain Light Rain  
Wind Chill: -1°   Ceiling: 200
Heat Index:   Visibility: 1mi
Dew Point:   Wind: 12mph
Humidity: 96%   Direction: 310°NW
Pressure: 29.67"   Gusts: 18mph
Location:  38.63°N, 81.57°W
Report Text: KCRW 261431Z 31010G16KT 1SM -RA BR OVC002 03/02 A2967 RMK AO2 RAB15 VIS 1/2V1 1/2 VLY FG P0001 T00280022 RVRNO
Loading
Personal Weather Stations






























Interactive Weather Map New forecast layout! Learn more

10-Day Weather Forecast

Advertisements
Track Severe Weather on mobile